sensor_id;sensor_type;location;lat;lon;timestamp;temperature;humidity
10245;DHT22;5167;52.164;10.530;2023-11-18T00:00:51;8.00;36.30
10245;DHT22;5167;52.164;10.530;2023-11-18T00:03:16;8.00;36.30
10245;DHT22;5167;52.164;10.530;2023-11-18T00:05:42;7.90;36.80
10245;DHT22;5167;52.164;10.530;2023-11-18T00:08:07;7.90;36.50
10245;DHT22;5167;52.164;10.530;2023-11-18T00:10:33;7.90;36.30
10245;DHT22;5167;52.164;10.530;2023-11-18T00:12:58;7.90;36.20
10245;DHT22;5167;52.164;10.530;2023-11-18T00:15:24;7.80;36.00
10245;DHT22;5167;52.164;10.530;2023-11-18T00:17:50;7.80;36.30
10245;DHT22;5167;52.164;10.530;2023-11-18T00:20:15;7.80;36.70
10245;DHT22;5167;52.164;10.530;2023-11-18T00:22:41;7.70;36.80
10245;DHT22;5167;52.164;10.530;2023-11-18T00:25:07;7.70;36.80
10245;DHT22;5167;52.164;10.530;2023-11-18T00:27:33;7.70;36.50
10245;DHT22;5167;52.164;10.530;2023-11-18T00:30:02;7.70;37.30
10245;DHT22;5167;52.164;10.530;2023-11-18T00:32:31;7.70;37.60
10245;DHT22;5167;52.164;10.530;2023-11-18T00:34:57;7.70;37.40
10245;DHT22;5167;52.164;10.530;2023-11-18T00:37:22;7.70;37.20
10245;DHT22;5167;52.164;10.530;2023-11-18T00:39:48;7.70;37.50
10245;DHT22;5167;52.164;10.530;2023-11-18T00:42:13;7.60;37.70
10245;DHT22;5167;52.164;10.530;2023-11-18T00:44:39;7.70;38.30
10245;DHT22;5167;52.164;10.530;2023-11-18T00:47:04;7.60;38.50
10245;DHT22;5167;52.164;10.530;2023-11-18T00:49:30;7.70;39.10
10245;DHT22;5167;52.164;10.530;2023-11-18T00:51:55;7.60;38.60
10245;DHT22;5167;52.164;10.530;2023-11-18T00:54:21;7.70;38.80
10245;DHT22;5167;52.164;10.530;2023-11-18T00:56:47;7.60;38.90
10245;DHT22;5167;52.164;10.530;2023-11-18T00:59:13;7.60;38.90
10245;DHT22;5167;52.164;10.530;2023-11-18T01:01:38;7.60;39.50
10245;DHT22;5167;52.164;10.530;2023-11-18T01:04:04;7.60;40.00
10245;DHT22;5167;52.164;10.530;2023-11-18T01:06:30;7.50;40.20
10245;DHT22;5167;52.164;10.530;2023-11-18T01:08:57;7.60;40.50
10245;DHT22;5167;52.164;10.530;2023-11-18T01:11:23;7.60;40.80
10245;DHT22;5167;52.164;10.530;2023-11-18T01:13:49;7.60;40.80
10245;DHT22;5167;52.164;10.530;2023-11-18T01:16:15;7.60;41.00
10245;DHT22;5167;52.164;10.530;2023-11-18T01:18:42;7.60;41.20
10245;DHT22;5167;52.164;10.530;2023-11-18T01:21:08;7.70;41.30
10245;DHT22;5167;52.164;10.530;2023-11-18T01:23:37;7.70;41.80
10245;DHT22;5167;52.164;10.530;2023-11-18T01:26:06;7.60;41.80
10245;DHT22;5167;52.164;10.530;2023-11-18T01:28:33;7.70;42.10
10245;DHT22;5167;52.164;10.530;2023-11-18T01:31:02;7.80;42.20
10245;DHT22;5167;52.164;10.530;2023-11-18T01:33:29;7.70;42.30
10245;DHT22;5167;52.164;10.530;2023-11-18T01:35:55;7.70;42.20
10245;DHT22;5167;52.164;10.530;2023-11-18T01:38:20;7.80;42.10
10245;DHT22;5167;52.164;10.530;2023-11-18T01:40:46;7.80;42.20
10245;DHT22;5167;52.164;10.530;2023-11-18T01:43:12;7.80;42.40
10245;DHT22;5167;52.164;10.530;2023-11-18T01:45:42;7.80;42.30
10245;DHT22;5167;52.164;10.530;2023-11-18T01:48:08;7.90;42.10
10245;DHT22;5167;52.164;10.530;2023-11-18T01:50:36;7.90;42.10
10245;DHT22;5167;52.164;10.530;2023-11-18T01:53:03;7.80;42.70
10245;DHT22;5167;52.164;10.530;2023-11-18T01:55:29;7.80;42.40
10245;DHT22;5167;52.164;10.530;2023-11-18T01:57:55;7.80;42.30
10245;DHT22;5167;52.164;10.530;2023-11-18T02:00:22;7.80;42.10
10245;DHT22;5167;52.164;10.530;2023-11-18T02:02:48;7.90;42.40
10245;DHT22;5167;52.164;10.530;2023-11-18T02:05:15;7.90;42.60
10245;DHT22;5167;52.164;10.530;2023-11-18T02:07:42;7.90;43.10
10245;DHT22;5167;52.164;10.530;2023-11-18T02:10:08;7.80;42.70
10245;DHT22;5167;52.164;10.530;2023-11-18T02:15:32;7.80;42.90
10245;DHT22;5167;52.164;10.530;2023-11-18T02:18:01;7.80;43.10
10245;DHT22;5167;52.164;10.530;2023-11-18T02:20:28;7.80;43.30
10245;DHT22;5167;52.164;10.530;2023-11-18T02:22:55;7.90;43.30
10245;DHT22;5167;52.164;10.530;2023-11-18T02:25:24;7.80;43.20
10245;DHT22;5167;52.164;10.530;2023-11-18T02:27:52;7.80;43.00
10245;DHT22;5167;52.164;10.530;2023-11-18T02:30:18;7.80;43.30
10245;DHT22;5167;52.164;10.530;2023-11-18T02:33:19;7.80;42.80
10245;DHT22;5167;52.164;10.530;2023-11-18T02:35:51;7.80;43.30
10245;DHT22;5167;52.164;10.530;2023-11-18T02:38:21;7.90;43.70
10245;DHT22;5167;52.164;10.530;2023-11-18T02:40:48;7.80;43.70
10245;DHT22;5167;52.164;10.530;2023-11-18T02:43:16;7.80;43.60
10245;DHT22;5167;52.164;10.530;2023-11-18T02:45:43;7.80;43.70
10245;DHT22;5167;52.164;10.530;2023-11-18T02:48:09;7.80;43.70
10245;DHT22;5167;52.164;10.530;2023-11-18T02:50:35;7.80;44.00
10245;DHT22;5167;52.164;10.530;2023-11-18T02:53:01;7.80;43.40
10245;DHT22;5167;52.164;10.530;2023-11-18T02:55:27;7.80;43.80
10245;DHT22;5167;52.164;10.530;2023-11-18T02:57:53;7.80;43.80
10245;DHT22;5167;52.164;10.530;2023-11-18T03:00:19;7.80;43.70
10245;DHT22;5167;52.164;10.530;2023-11-18T03:02:47;7.80;44.30
10245;DHT22;5167;52.164;10.530;2023-11-18T03:05:13;7.80;44.10
10245;DHT22;5167;52.164;10.530;2023-11-18T03:07:47;7.80;44.00
10245;DHT22;5167;52.164;10.530;2023-11-18T03:10:19;7.80;44.40
10245;DHT22;5167;52.164;10.530;2023-11-18T03:12:51;7.80;44.00
10245;DHT22;5167;52.164;10.530;2023-11-18T03:15:18;7.80;44.10
10245;DHT22;5167;52.164;10.530;2023-11-18T03:17:47;7.80;44.30
10245;DHT22;5167;52.164;10.530;2023-11-18T03:20:14;7.90;44.30
10245;DHT22;5167;52.164;10.530;2023-11-18T03:22:43;7.90;44.30
10245;DHT22;5167;52.164;10.530;2023-11-18T03:25:09;7.80;44.30
10245;DHT22;5167;52.164;10.530;2023-11-18T03:27:35;7.80;44.50
10245;DHT22;5167;52.164;10.530;2023-11-18T03:30:00;7.80;44.50
10245;DHT22;5167;52.164;10.530;2023-11-18T03:32:26;7.90;44.20
10245;DHT22;5167;52.164;10.530;2023-11-18T03:34:51;7.90;44.40
10245;DHT22;5167;52.164;10.530;2023-11-18T03:37:17;7.90;43.90
10245;DHT22;5167;52.164;10.530;2023-11-18T03:39:42;7.90;44.10
10245;DHT22;5167;52.164;10.530;2023-11-18T03:42:10;7.90;44.10
10245;DHT22;5167;52.164;10.530;2023-11-18T03:44:35;7.90;44.30
10245;DHT22;5167;52.164;10.530;2023-11-18T03:47:02;7.90;43.60
10245;DHT22;5167;52.164;10.530;2023-11-18T03:49:28;7.90;44.10
10245;DHT22;5167;52.164;10.530;2023-11-18T03:51:53;7.90;44.40
10245;DHT22;5167;52.164;10.530;2023-11-18T03:54:20;7.90;44.70
10245;DHT22;5167;52.164;10.530;2023-11-18T03:56:45;7.90;44.40
10245;DHT22;5167;52.164;10.530;2023-11-18T03:59:11;7.90;44.30
10245;DHT22;5167;52.164;10.530;2023-11-18T04:01:36;7.90;44.40
10245;DHT22;5167;52.164;10.530;2023-11-18T04:04:02;7.90;44.70
10245;DHT22;5167;52.164;10.530;2023-11-18T04:06:29;7.90;44.40
10245;DHT22;5167;52.164;10.530;2023-11-18T04:08:54;7.90;44.70
10245;DHT22;5167;52.164;10.530;2023-11-18T04:11:20;7.90;44.50
10245;DHT22;5167;52.164;10.530;2023-11-18T04:13:46;7.90;44.70
10245;DHT22;5167;52.164;10.530;2023-11-18T04:16:15;8.00;44.50
10245;DHT22;5167;52.164;10.530;2023-11-18T04:18:42;8.00;44.90
10245;DHT22;5167;52.164;10.530;2023-11-18T04:21:09;7.90;45.20
10245;DHT22;5167;52.164;10.530;2023-11-18T04:23:36;7.90;45.10
10245;DHT22;5167;52.164;10.530;2023-11-18T04:26:03;8.00;45.30
10245;DHT22;5167;52.164;10.530;2023-11-18T04:28:29;8.00;45.70
10245;DHT22;5167;52.164;10.530;2023-11-18T04:30:55;8.00;45.60
10245;DHT22;5167;52.164;10.530;2023-11-18T04:33:21;8.00;45.50
10245;DHT22;5167;52.164;10.530;2023-11-18T04:35:46;8.00;46.00
10245;DHT22;5167;52.164;10.530;2023-11-18T04:38:12;8.00;45.90
10245;DHT22;5167;52.164;10.530;2023-11-18T04:40:37;8.00;46.10
10245;DHT22;5167;52.164;10.530;2023-11-18T04:43:04;8.00;46.30
10245;DHT22;5167;52.164;10.530;2023-11-18T04:45:30;8.00;46.30
10245;DHT22;5167;52.164;10.530;2023-11-18T04:47:56;8.00;46.40
10245;DHT22;5167;52.164;10.530;2023-11-18T04:50:21;8.00;46.70
10245;DHT22;5167;52.164;10.530;2023-11-18T04:52:47;8.10;46.30
10245;DHT22;5167;52.164;10.530;2023-11-18T04:55:13;8.10;46.10
10245;DHT22;5167;52.164;10.530;2023-11-18T04:57:39;8.10;46.50
10245;DHT22;5167;52.164;10.530;2023-11-18T05:00:05;8.10;45.80
10245;DHT22;5167;52.164;10.530;2023-11-18T05:02:39;8.00;46.00
10245;DHT22;5167;52.164;10.530;2023-11-18T05:05:05;8.00;46.10
10245;DHT22;5167;52.164;10.530;2023-11-18T05:07:32;8.00;46.40
10245;DHT22;5167;52.164;10.530;2023-11-18T05:09:57;8.00;46.30
10245;DHT22;5167;52.164;10.530;2023-11-18T05:12:23;8.00;46.60
10245;DHT22;5167;52.164;10.530;2023-11-18T05:14:48;8.00;46.80
10245;DHT22;5167;52.164;10.530;2023-11-18T05:17:15;8.00;46.60
10245;DHT22;5167;52.164;10.530;2023-11-18T05:19:41;8.00;46.60
10245;DHT22;5167;52.164;10.530;2023-11-18T05:22:08;8.10;46.50
10245;DHT22;5167;52.164;10.530;2023-11-18T05:24:34;8.00;46.60
10245;DHT22;5167;52.164;10.530;2023-11-18T05:27:00;8.10;46.70
10245;DHT22;5167;52.164;10.530;2023-11-18T05:29:27;8.10;46.70
10245;DHT22;5167;52.164;10.530;2023-11-18T05:31:53;8.10;47.20
10245;DHT22;5167;52.164;10.530;2023-11-18T05:34:20;8.00;46.50
10245;DHT22;5167;52.164;10.530;2023-11-18T05:36:46;8.00;46.40
10245;DHT22;5167;52.164;10.530;2023-11-18T05:39:12;8.00;47.20
10245;DHT22;5167;52.164;10.530;2023-11-18T05:41:40;8.00;46.90
10245;DHT22;5167;52.164;10.530;2023-11-18T05:44:09;8.00;46.20
10245;DHT22;5167;52.164;10.530;2023-11-18T05:46:42;8.00;46.20
10245;DHT22;5167;52.164;10.530;2023-11-18T05:49:09;7.90;46.40
10245;DHT22;5167;52.164;10.530;2023-11-18T05:51:34;8.00;46.20
10245;DHT22;5167;52.164;10.530;2023-11-18T05:54:00;7.90;46.30
10245;DHT22;5167;52.164;10.530;2023-11-18T05:56:26;7.90;46.40
10245;DHT22;5167;52.164;10.530;2023-11-18T05:58:52;7.90;45.70
10245;DHT22;5167;52.164;10.530;2023-11-18T06:01:20;7.90;45.40
10245;DHT22;5167;52.164;10.530;2023-11-18T06:03:46;7.80;45.90
10245;DHT22;5167;52.164;10.530;2023-11-18T06:06:14;7.80;45.60
10245;DHT22;5167;52.164;10.530;2023-11-18T06:08:41;7.80;45.90
10245;DHT22;5167;52.164;10.530;2023-11-18T06:11:09;7.80;45.80
10245;DHT22;5167;52.164;10.530;2023-11-18T06:13:49;7.80;46.20
10245;DHT22;5167;52.164;10.530;2023-11-18T06:16:18;7.70;46.80
10245;DHT22;5167;52.164;10.530;2023-11-18T06:18:46;7.80;45.70
10245;DHT22;5167;52.164;10.530;2023-11-18T06:21:16;7.80;45.90
10245;DHT22;5167;52.164;10.530;2023-11-18T06:23:44;7.70;45.20
10245;DHT22;5167;52.164;10.530;2023-11-18T06:26:10;7.80;45.60
10245;DHT22;5167;52.164;10.530;2023-11-18T06:28:39;7.70;45.30
10245;DHT22;5167;52.164;10.530;2023-11-18T06:31:05;7.70;45.70
10245;DHT22;5167;52.164;10.530;2023-11-18T06:33:36;7.70;45.60
10245;DHT22;5167;52.164;10.530;2023-11-18T06:36:04;7.70;45.70
10245;DHT22;5167;52.164;10.530;2023-11-18T06:38:29;7.70;45.70
10245;DHT22;5167;52.164;10.530;2023-11-18T06:40:56;7.70;45.60
10245;DHT22;5167;52.164;10.530;2023-11-18T06:43:21;7.70;45.30
10245;DHT22;5167;52.164;10.530;2023-11-18T06:45:47;7.70;45.20
10245;DHT22;5167;52.164;10.530;2023-11-18T06:48:14;7.60;44.80
10245;DHT22;5167;52.164;10.530;2023-11-18T06:50:40;7.70;45.00
10245;DHT22;5167;52.164;10.530;2023-11-18T06:53:09;7.60;45.00
10245;DHT22;5167;52.164;10.530;2023-11-18T06:55:36;7.50;45.10
10245;DHT22;5167;52.164;10.530;2023-11-18T06:58:01;7.50;45.30
10245;DHT22;5167;52.164;10.530;2023-11-18T07:00:27;7.50;45.10
10245;DHT22;5167;52.164;10.530;2023-11-18T07:02:54;7.50;45.40
10245;DHT22;5167;52.164;10.530;2023-11-18T07:05:20;7.50;45.10
10245;DHT22;5167;52.164;10.530;2023-11-18T07:07:52;7.50;45.30
10245;DHT22;5167;52.164;10.530;2023-11-18T07:10:17;7.40;44.90
10245;DHT22;5167;52.164;10.530;2023-11-18T07:12:46;7.40;43.90
10245;DHT22;5167;52.164;10.530;2023-11-18T07:15:14;7.30;44.20
10245;DHT22;5167;52.164;10.530;2023-11-18T07:17:40;7.30;43.90
10245;DHT22;5167;52.164;10.530;2023-11-18T07:20:06;7.30;44.00
10245;DHT22;5167;52.164;10.530;2023-11-18T07:22:32;7.20;43.90
10245;DHT22;5167;52.164;10.530;2023-11-18T07:24:57;7.20;44.10
10245;DHT22;5167;52.164;10.530;2023-11-18T07:27:23;7.30;45.00
10245;DHT22;5167;52.164;10.530;2023-11-18T07:29:48;7.20;44.40
10245;DHT22;5167;52.164;10.530;2023-11-18T07:32:14;7.30;44.90
10245;DHT22;5167;52.164;10.530;2023-11-18T07:34:39;7.20;44.60
10245;DHT22;5167;52.164;10.530;2023-11-18T07:37:06;7.30;44.40
10245;DHT22;5167;52.164;10.530;2023-11-18T07:39:33;7.30;43.80
10245;DHT22;5167;52.164;10.530;2023-11-18T07:42:14;7.20;43.60
10245;DHT22;5167;52.164;10.530;2023-11-18T07:44:40;7.20;44.20
10245;DHT22;5167;52.164;10.530;2023-11-18T07:47:06;7.20;44.70
10245;DHT22;5167;52.164;10.530;2023-11-18T07:49:34;7.10;44.10
10245;DHT22;5167;52.164;10.530;2023-11-18T07:52:01;7.10;44.50
10245;DHT22;5167;52.164;10.530;2023-11-18T07:54:27;7.10;43.90
10245;DHT22;5167;52.164;10.530;2023-11-18T07:56:52;7.10;44.50
10245;DHT22;5167;52.164;10.530;2023-11-18T07:59:19;7.10;44.80
10245;DHT22;5167;52.164;10.530;2023-11-18T08:01:45;7.10;44.60
10245;DHT22;5167;52.164;10.530;2023-11-18T08:04:12;7.00;44.40
10245;DHT22;5167;52.164;10.530;2023-11-18T08:06:39;7.10;45.10
10245;DHT22;5167;52.164;10.530;2023-11-18T08:09:05;7.10;45.10
10245;DHT22;5167;52.164;10.530;2023-11-18T08:11:38;7.00;45.50
10245;DHT22;5167;52.164;10.530;2023-11-18T08:14:04;7.10;44.80
10245;DHT22;5167;52.164;10.530;2023-11-18T08:16:30;7.00;45.20
10245;DHT22;5167;52.164;10.530;2023-11-18T08:18:55;7.00;45.10
10245;DHT22;5167;52.164;10.530;2023-11-18T08:21:21;7.10;46.20
10245;DHT22;5167;52.164;10.530;2023-11-18T08:23:47;7.10;46.00
10245;DHT22;5167;52.164;10.530;2023-11-18T08:26:13;7.10;46.80
10245;DHT22;5167;52.164;10.530;2023-11-18T08:28:39;7.30;46.80
10245;DHT22;5167;52.164;10.530;2023-11-18T08:31:06;7.10;46.80
10245;DHT22;5167;52.164;10.530;2023-11-18T08:33:32;7.20;46.50
10245;DHT22;5167;52.164;10.530;2023-11-18T08:35:58;7.10;47.00
10245;DHT22;5167;52.164;10.530;2023-11-18T08:38:24;7.10;47.30
10245;DHT22;5167;52.164;10.530;2023-11-18T08:40:50;7.10;47.60
10245;DHT22;5167;52.164;10.530;2023-11-18T08:43:17;7.20;47.60
10245;DHT22;5167;52.164;10.530;2023-11-18T08:45:42;7.10;48.30
10245;DHT22;5167;52.164;10.530;2023-11-18T08:48:08;7.20;48.20
10245;DHT22;5167;52.164;10.530;2023-11-18T08:50:35;7.20;48.70
10245;DHT22;5167;52.164;10.530;2023-11-18T08:53:01;7.30;48.70
10245;DHT22;5167;52.164;10.530;2023-11-18T08:55:32;7.30;48.50
10245;DHT22;5167;52.164;10.530;2023-11-18T08:58:16;7.30;49.30
10245;DHT22;5167;52.164;10.530;2023-11-18T09:00:46;7.30;49.50
10245;DHT22;5167;52.164;10.530;2023-11-18T09:03:12;7.40;49.70
10245;DHT22;5167;52.164;10.530;2023-11-18T09:05:58;7.50;49.90
10245;DHT22;5167;52.164;10.530;2023-11-18T09:08:31;7.50;50.80
10245;DHT22;5167;52.164;10.530;2023-11-18T09:11:08;7.50;50.70
10245;DHT22;5167;52.164;10.530;2023-11-18T09:13:36;7.50;50.90
10245;DHT22;5167;52.164;10.530;2023-11-18T09:16:06;7.50;50.90
10245;DHT22;5167;52.164;10.530;2023-11-18T09:18:34;7.60;50.90
10245;DHT22;5167;52.164;10.530;2023-11-18T09:21:01;7.70;51.10
10245;DHT22;5167;52.164;10.530;2023-11-18T09:23:29;7.60;51.00
10245;DHT22;5167;52.164;10.530;2023-11-18T09:25:54;7.70;51.90
10245;DHT22;5167;52.164;10.530;2023-11-18T09:28:21;7.70;51.80
10245;DHT22;5167;52.164;10.530;2023-11-18T09:30:48;7.70;51.60
10245;DHT22;5167;52.164;10.530;2023-11-18T09:33:20;7.80;51.60
10245;DHT22;5167;52.164;10.530;2023-11-18T09:36:04;7.70;52.00
10245;DHT22;5167;52.164;10.530;2023-11-18T09:38:34;7.80;51.90
10245;DHT22;5167;52.164;10.530;2023-11-18T09:41:01;7.70;52.70
10245;DHT22;5167;52.164;10.530;2023-11-18T09:43:33;7.80;52.80
10245;DHT22;5167;52.164;10.530;2023-11-18T09:46:06;7.90;52.90
10245;DHT22;5167;52.164;10.530;2023-11-18T09:51:38;8.00;53.10
10245;DHT22;5167;52.164;10.530;2023-11-18T09:54:07;8.10;53.60
10245;DHT22;5167;52.164;10.530;2023-11-18T09:57:39;8.20;53.10
10245;DHT22;5167;52.164;10.530;2023-11-18T10:00:04;8.30;52.50
10245;DHT22;5167;52.164;10.530;2023-11-18T10:02:45;8.30;51.50
10245;DHT22;5167;52.164;10.530;2023-11-18T10:05:12;8.40;50.40
10245;DHT22;5167;52.164;10.530;2023-11-18T10:07:41;8.50;50.30
10245;DHT22;5167;52.164;10.530;2023-11-18T10:10:07;8.50;50.00
10245;DHT22;5167;52.164;10.530;2023-11-18T10:12:43;8.50;49.80
10245;DHT22;5167;52.164;10.530;2023-11-18T10:15:21;8.60;49.50
10245;DHT22;5167;52.164;10.530;2023-11-18T10:17:51;8.60;49.30
10245;DHT22;5167;52.164;10.530;2023-11-18T10:20:45;8.70;48.80
10245;DHT22;5167;52.164;10.530;2023-11-18T10:23:15;8.70;49.10
10245;DHT22;5167;52.164;10.530;2023-11-18T10:25:55;8.70;48.20
10245;DHT22;5167;52.164;10.530;2023-11-18T10:28:27;8.80;47.70
10245;DHT22;5167;52.164;10.530;2023-11-18T10:30:57;8.80;48.00
10245;DHT22;5167;52.164;10.530;2023-11-18T10:33:35;8.90;46.60
10245;DHT22;5167;52.164;10.530;2023-11-18T10:36:03;8.90;46.70
10245;DHT22;5167;52.164;10.530;2023-11-18T10:38:37;9.00;45.80
10245;DHT22;5167;52.164;10.530;2023-11-18T10:41:08;9.10;43.90
10245;DHT22;5167;52.164;10.530;2023-11-18T10:43:34;9.30;43.20
10245;DHT22;5167;52.164;10.530;2023-11-18T10:46:09;9.30;43.20
10245;DHT22;5167;52.164;10.530;2023-11-18T10:48:46;9.40;41.30
10245;DHT22;5167;52.164;10.530;2023-11-18T10:51:18;9.40;40.60
10245;DHT22;5167;52.164;10.530;2023-11-18T10:53:51;9.50;38.80
10245;DHT22;5167;52.164;10.530;2023-11-18T10:56:29;9.60;37.70
10245;DHT22;5167;52.164;10.530;2023-11-18T10:59:05;9.60;37.10
10245;DHT22;5167;52.164;10.530;2023-11-18T11:01:35;9.60;36.40
10245;DHT22;5167;52.164;10.530;2023-11-18T11:04:10;9.60;36.90
10245;DHT22;5167;52.164;10.530;2023-11-18T11:06:44;9.60;36.70
10245;DHT22;5167;52.164;10.530;2023-11-18T11:09:18;9.70;36.50
10245;DHT22;5167;52.164;10.530;2023-11-18T11:11:52;9.60;36.20
10245;DHT22;5167;52.164;10.530;2023-11-18T11:14:21;9.60;36.20
10245;DHT22;5167;52.164;10.530;2023-11-18T11:16:52;9.60;35.80
10245;DHT22;5167;52.164;10.530;2023-11-18T11:19:30;9.70;35.60
10245;DHT22;5167;52.164;10.530;2023-11-18T11:22:07;9.70;36.00
10245;DHT22;5167;52.164;10.530;2023-11-18T11:25:09;9.70;35.10
10245;DHT22;5167;52.164;10.530;2023-11-18T11:27:54;9.60;34.40
10245;DHT22;5167;52.164;10.530;2023-11-18T11:30:42;9.60;35.00
10245;DHT22;5167;52.164;10.530;2023-11-18T11:33:26;9.60;35.00
10245;DHT22;5167;52.164;10.530;2023-11-18T11:35:56;9.60;35.00
10245;DHT22;5167;52.164;10.530;2023-11-18T11:38:24;9.60;34.10
10245;DHT22;5167;52.164;10.530;2023-11-18T11:40:53;9.50;34.60
10245;DHT22;5167;52.164;10.530;2023-11-18T11:43:20;9.60;33.60
10245;DHT22;5167;52.164;10.530;2023-11-18T11:45:54;9.50;34.50
10245;DHT22;5167;52.164;10.530;2023-11-18T11:48:21;9.50;34.50
10245;DHT22;5167;52.164;10.530;2023-11-18T11:51:09;9.50;34.50
10245;DHT22;5167;52.164;10.530;2023-11-18T11:53:44;9.50;35.20
10245;DHT22;5167;52.164;10.530;2023-11-18T11:56:11;9.50;35.60
10245;DHT22;5167;52.164;10.530;2023-11-18T11:58:41;9.60;35.60
10245;DHT22;5167;52.164;10.530;2023-11-18T12:01:21;9.60;33.90
10245;DHT22;5167;52.164;10.530;2023-11-18T12:03:49;9.60;33.90
10245;DHT22;5167;52.164;10.530;2023-11-18T12:06:18;9.60;33.90
10245;DHT22;5167;52.164;10.530;2023-11-18T12:08:52;9.70;33.60
10245;DHT22;5167;52.164;10.530;2023-11-18T12:11:18;9.70;32.50
10245;DHT22;5167;52.164;10.530;2023-11-18T12:14:04;9.80;31.00
10245;DHT22;5167;52.164;10.530;2023-11-18T12:17:04;9.80;30.50
10245;DHT22;5167;52.164;10.530;2023-11-18T12:19:37;9.70;30.20
10245;DHT22;5167;52.164;10.530;2023-11-18T12:35:24;9.80;27.30
10245;DHT22;5167;52.164;10.530;2023-11-18T12:40:54;9.80;26.50
10245;DHT22;5167;52.164;10.530;2023-11-18T12:43:42;9.90;25.90
10245;DHT22;5167;52.164;10.530;2023-11-18T12:49:15;9.90;25.30
10245;DHT22;5167;52.164;10.530;2023-11-18T12:51:42;9.80;25.10
10245;DHT22;5167;52.164;10.530;2023-11-18T12:54:11;9.80;24.60
10245;DHT22;5167;52.164;10.530;2023-11-18T12:56:38;9.80;24.40
10245;DHT22;5167;52.164;10.530;2023-11-18T12:59:09;9.80;23.70
10245;DHT22;5167;52.164;10.530;2023-11-18T13:01:35;9.80;23.70
10245;DHT22;5167;52.164;10.530;2023-11-18T13:04:02;9.80;23.70
10245;DHT22;5167;52.164;10.530;2023-11-18T13:06:28;9.80;23.10
10245;DHT22;5167;52.164;10.530;2023-11-18T13:08:54;9.90;24.60
10245;DHT22;5167;52.164;10.530;2023-11-18T13:11:22;9.90;23.70
10245;DHT22;5167;52.164;10.530;2023-11-18T13:13:51;9.80;23.80
10245;DHT22;5167;52.164;10.530;2023-11-18T13:16:16;9.80;23.70
10245;DHT22;5167;52.164;10.530;2023-11-18T13:18:47;9.90;23.20
10245;DHT22;5167;52.164;10.530;2023-11-18T13:21:17;9.80;23.50
10245;DHT22;5167;52.164;10.530;2023-11-18T13:23:48;9.80;23.40
10245;DHT22;5167;52.164;10.530;2023-11-18T13:26:14;9.80;23.80
10245;DHT22;5167;52.164;10.530;2023-11-18T13:28:40;9.80;23.30
10245;DHT22;5167;52.164;10.530;2023-11-18T13:31:06;9.80;23.80
10245;DHT22;5167;52.164;10.530;2023-11-18T13:33:39;9.80;23.90
10245;DHT22;5167;52.164;10.530;2023-11-18T13:36:06;9.80;24.00
10245;DHT22;5167;52.164;10.530;2023-11-18T13:38:32;9.90;23.90
10245;DHT22;5167;52.164;10.530;2023-11-18T13:40:57;9.90;23.80
10245;DHT22;5167;52.164;10.530;2023-11-18T13:43:24;9.90;23.80
10245;DHT22;5167;52.164;10.530;2023-11-18T13:45:52;9.90;23.70
10245;DHT22;5167;52.164;10.530;2023-11-18T13:48:24;10.00;24.10
10245;DHT22;5167;52.164;10.530;2023-11-18T13:50:52;9.90;24.30
10245;DHT22;5167;52.164;10.530;2023-11-18T13:53:18;10.00;23.90
10245;DHT22;5167;52.164;10.530;2023-11-18T13:55:45;9.90;23.70
10245;DHT22;5167;52.164;10.530;2023-11-18T13:58:14;10.00;23.50
10245;DHT22;5167;52.164;10.530;2023-11-18T14:00:40;9.90;23.80
10245;DHT22;5167;52.164;10.530;2023-11-18T14:03:06;9.90;23.60
10245;DHT22;5167;52.164;10.530;2023-11-18T14:05:35;10.00;23.40
10245;DHT22;5167;52.164;10.530;2023-11-18T14:08:03;9.90;23.70
10245;DHT22;5167;52.164;10.530;2023-11-18T14:10:35;10.00;22.80
10245;DHT22;5167;52.164;10.530;2023-11-18T14:13:05;9.90;23.40
10245;DHT22;5167;52.164;10.530;2023-11-18T14:15:37;9.90;22.70
10245;DHT22;5167;52.164;10.530;2023-11-18T14:18:04;9.90;23.00
10245;DHT22;5167;52.164;10.530;2023-11-18T14:20:29;9.80;23.10
10245;DHT22;5167;52.164;10.530;2023-11-18T14:22:57;9.80;22.60
10245;DHT22;5167;52.164;10.530;2023-11-18T14:25:23;9.80;22.00
10245;DHT22;5167;52.164;10.530;2023-11-18T14:27:50;9.80;22.30
10245;DHT22;5167;52.164;10.530;2023-11-18T14:30:16;9.90;22.50
10245;DHT22;5167;52.164;10.530;2023-11-18T14:32:43;9.80;22.50
10245;DHT22;5167;52.164;10.530;2023-11-18T14:35:08;9.70;22.40
10245;DHT22;5167;52.164;10.530;2023-11-18T14:37:38;9.70;23.20
10245;DHT22;5167;52.164;10.530;2023-11-18T14:40:14;9.60;22.90
10245;DHT22;5167;52.164;10.530;2023-11-18T14:42:43;9.60;23.20
10245;DHT22;5167;52.164;10.530;2023-11-18T14:45:12;9.60;23.40
10245;DHT22;5167;52.164;10.530;2023-11-18T14:47:39;9.60;24.10
10245;DHT22;5167;52.164;10.530;2023-11-18T14:50:05;9.60;23.80
10245;DHT22;5167;52.164;10.530;2023-11-18T14:52:40;9.50;24.10
10245;DHT22;5167;52.164;10.530;2023-11-18T14:55:06;9.50;24.60
10245;DHT22;5167;52.164;10.530;2023-11-18T14:57:38;9.60;24.50
10245;DHT22;5167;52.164;10.530;2023-11-18T15:00:05;9.40;24.20
10245;DHT22;5167;52.164;10.530;2023-11-18T15:02:51;9.40;23.50
10245;DHT22;5167;52.164;10.530;2023-11-18T15:05:17;9.40;23.40
10245;DHT22;5167;52.164;10.530;2023-11-18T15:07:47;9.50;23.70
10245;DHT22;5167;52.164;10.530;2023-11-18T15:10:18;9.50;23.90
10245;DHT22;5167;52.164;10.530;2023-11-18T15:12:51;9.30;23.40
10245;DHT22;5167;52.164;10.530;2023-11-18T15:15:24;9.30;23.20
10245;DHT22;5167;52.164;10.530;2023-11-18T15:17:58;9.30;23.60
10245;DHT22;5167;52.164;10.530;2023-11-18T15:20:24;9.30;24.00
10245;DHT22;5167;52.164;10.530;2023-11-18T15:22:50;9.20;23.60
10245;DHT22;5167;52.164;10.530;2023-11-18T15:25:16;9.30;23.80
10245;DHT22;5167;52.164;10.530;2023-11-18T15:27:43;9.20;24.00
10245;DHT22;5167;52.164;10.530;2023-11-18T15:30:11;9.30;24.00
10245;DHT22;5167;52.164;10.530;2023-11-18T15:32:41;9.20;24.00
10245;DHT22;5167;52.164;10.530;2023-11-18T15:35:09;9.20;24.30
10245;DHT22;5167;52.164;10.530;2023-11-18T15:37:36;9.20;24.50
10245;DHT22;5167;52.164;10.530;2023-11-18T15:40:02;9.20;24.30
10245;DHT22;5167;52.164;10.530;2023-11-18T15:42:39;9.20;23.90
10245;DHT22;5167;52.164;10.530;2023-11-18T15:45:15;9.10;24.00
10245;DHT22;5167;52.164;10.530;2023-11-18T15:47:43;9.20;24.30
10245;DHT22;5167;52.164;10.530;2023-11-18T15:50:10;9.10;24.80
10245;DHT22;5167;52.164;10.530;2023-11-18T15:52:45;9.20;24.90
10245;DHT22;5167;52.164;10.530;2023-11-18T15:55:13;9.10;25.10
10245;DHT22;5167;52.164;10.530;2023-11-18T15:57:44;9.10;25.00
10245;DHT22;5167;52.164;10.530;2023-11-18T16:00:11;9.10;25.80
10245;DHT22;5167;52.164;10.530;2023-11-18T16:02:45;9.10;25.60
10245;DHT22;5167;52.164;10.530;2023-11-18T16:05:29;9.00;25.60
10245;DHT22;5167;52.164;10.530;2023-11-18T16:07:59;9.10;26.10
10245;DHT22;5167;52.164;10.530;2023-11-18T16:10:26;9.00;25.60
10245;DHT22;5167;52.164;10.530;2023-11-18T16:15:23;9.20;26.30
10245;DHT22;5167;52.164;10.530;2023-11-18T16:17:50;9.10;26.90
10245;DHT22;5167;52.164;10.530;2023-11-18T16:20:16;9.10;26.80
10245;DHT22;5167;52.164;10.530;2023-11-18T16:22:43;9.10;27.90